Time;durP1;ratioP1;P1;durP2;ratioP2;P2;SDS_P1;SDS_P2;PMS_P1;PMS_P2;Temp;Humidity;BMP_temperature;BMP_pressure;BME280_temperature;BME280_humidity;BME280_pressure;Samples;Min_cycle;Max_cycle;Signal;HPM_P1;HPM_P2
2021/06/17 06:06:18;;;;;;;7.80;5.13;;;;;;;;;;10594632;28;20032;-85
2021/06/17 07:03:24;;;;;;;8.52;4.35;;;;;;;;;;10510686;28;20055;-86
2021/06/17 07:08:25;;;;;;;7.07;4.82;;;;;;;;;;10560367;28;20025;-84
2021/06/17 07:13:28;;;;;;;9.25;5.28;;;;;;;;;;10545356;28;20032;-84
2021/06/17 07:18:29;;;;;;;6.40;5.30;;;;;;;;;;10563140;28;20043;-83
2021/06/17 07:23:33;;;;;;;7.13;5.47;;;;;;;;;;10560878;28;20028;-85
2021/06/17 07:28:33;;;;;;;6.40;4.40;;;;;;;;;;10562549;28;20115;-85
2021/06/17 07:33:35;;;;;;;4.72;4.22;;;;;;;;;;10543147;22;20045;-85
2021/06/17 07:38:43;;;;;;;6.97;6.03;;;;;;;;;;10518653;28;20067;-85
2021/06/17 07:43:45;;;;;;;5.65;4.55;;;;;;;;;;10552569;28;20028;-84
2021/06/17 07:48:46;;;;;;;7.57;5.50;;;;;;;;;;10545337;28;20035;-82
2021/06/17 07:53:47;;;;;;;6.35;5.13;;;;;;;;;;10537837;28;20024;-84
2021/06/17 07:59:14;;;;;;;7.07;4.68;;;;;;;;;;10538753;28;20472;-85
2021/06/17 08:04:15;;;;;;;9.13;5.18;;;;;;;;;;10542701;28;20020;-83
2021/06/17 08:09:19;;;;;;;5.63;4.50;;;;;;;;;;10543054;28;20032;-84
2021/06/17 08:14:25;;;;;;;9.45;5.78;;;;;;;;;;10543444;28;20039;-85
2021/06/17 08:19:29;;;;;;;9.63;4.68;;;;;;;;;;10547885;28;20063;-85
2021/06/17 08:24:31;;;;;;;6.30;4.90;;;;;;;;;;10548758;28;20035;-84
2021/06/17 08:29:32;;;;;;;7.18;5.40;;;;;;;;;;10564480;28;20059;-84
2021/06/17 08:34:33;;;;;;;5.60;4.72;;;;;;;;;;10545574;28;20478;-85
2021/06/17 08:39:35;;;;;;;5.72;4.57;;;;;;;;;;10543555;28;20020;-85
2021/06/17 08:44:36;;;;;;;6.00;5.10;;;;;;;;;;10545050;28;20020;-85
2021/06/17 08:49:37;;;;;;;6.70;4.55;;;;;;;;;;10544578;28;20048;-84
2021/06/17 08:54:38;;;;;;;7.50;5.03;;;;;;;;;;10541845;28;20048;-84
2021/06/17 08:59:40;;;;;;;5.55;4.65;;;;;;;;;;10538464;28;20032;-83
2021/06/17 09:04:41;;;;;;;4.68;4.13;;;;;;;;;;10538220;28;20024;-83
2021/06/17 09:09:43;;;;;;;7.00;4.93;;;;;;;;;;10556635;28;20024;-84
2021/06/17 09:14:55;;;;;;;7.53;4.60;;;;;;;;;;10537897;28;20020;-84
2021/06/17 09:19:57;;;;;;;6.57;4.78;;;;;;;;;;10538901;28;20028;-84
2021/06/17 09:24:58;;;;;;;5.57;4.22;;;;;;;;;;10537148;28;20496;-84
2021/06/17 09:30:11;;;;;;;7.07;6.35;;;;;;;;;;10538440;28;20067;-83
2021/06/17 09:35:24;;;;;;;4.80;4.28;;;;;;;;;;10537143;28;20024;-83
2021/06/17 09:40:32;;;;;;;9.10;5.00;;;;;;;;;;10537623;28;20051;-83
2021/06/17 09:45:33;;;;;;;4.88;4.47;;;;;;;;;;10537372;28;20024;-83
2021/06/17 09:50:34;;;;;;;5.85;4.80;;;;;;;;;;10536220;28;20020;-82
2021/06/17 09:55:35;;;;;;;9.57;6.00;;;;;;;;;;10555463;28;20028;-82
2021/06/17 10:00:36;;;;;;;5.88;5.07;;;;;;;;;;10536705;28;20059;-82
2021/06/17 10:05:37;;;;;;;7.10;5.53;;;;;;;;;;10535584;28;20028;-83
2021/06/17 10:10:38;;;;;;;6.07;5.13;;;;;;;;;;10536081;28;20565;-82
2021/06/17 10:15:39;;;;;;;6.05;4.75;;;;;;;;;;10554721;28;20039;-83
2021/06/17 10:20:41;;;;;;;6.07;4.80;;;;;;;;;;10534005;28;20028;-83
2021/06/17 10:25:46;;;;;;;10.30;4.90;;;;;;;;;;10535776;28;20024;-85
2021/06/17 10:30:49;;;;;;;5.75;4.55;;;;;;;;;;10535893;28;20020;-85
2021/06/17 10:35:50;;;;;;;5.95;5.30;;;;;;;;;;10537874;28;20122;-82
2021/06/17 10:40:53;;;;;;;4.80;4.40;;;;;;;;;;10550320;28;20110;-83
2021/06/17 10:45:54;;;;;;;5.75;5.25;;;;;;;;;;10558791;28;20032;-83
2021/06/17 10:51:04;;;;;;;5.38;4.28;;;;;;;;;;10568809;28;20024;-83
2021/06/17 10:56:08;;;;;;;4.80;4.25;;;;;;;;;;10546173;28;20119;-83
2021/06/17 11:01:22;;;;;;;4.85;4.40;;;;;;;;;;10541836;28;20035;-84
2021/06/17 11:06:23;;;;;;;6.03;4.30;;;;;;;;;;10548964;28;20027;-84
2021/06/17 11:11:30;;;;;;;5.53;3.80;;;;;;;;;;10540341;28;20457;-84
2021/06/17 11:16:31;;;;;;;4.35;3.92;;;;;;;;;;10537794;28;20024;-85
2021/06/17 11:21:35;;;;;;;5.28;4.25;;;;;;;;;;10535610;28;20024;-84
2021/06/17 11:26:47;;;;;;;5.57;4.65;;;;;;;;;;10538322;28;20060;-84
2021/06/17 11:31:49;;;;;;;5.80;4.53;;;;;;;;;;10535411;28;20051;-84
2021/06/17 11:36:51;;;;;;;5.63;4.10;;;;;;;;;;10538118;28;20035;-84
2021/06/17 11:41:53;;;;;;;4.78;4.28;;;;;;;;;;10533803;28;20031;-83
2021/06/17 11:47:10;;;;;;;5.45;4.10;;;;;;;;;;10534607;28;20027;-84
2021/06/17 11:52:15;;;;;;;6.07;3.63;;;;;;;;;;10539757;28;20052;-83
2021/06/17 11:57:25;;;;;;;4.68;4.03;;;;;;;;;;10555363;28;20122;-83
2021/06/17 12:02:26;;;;;;;4.43;3.75;;;;;;;;;;10553282;28;20028;-83
2021/06/17 12:07:30;;;;;;;7.03;4.40;;;;;;;;;;10552538;28;20024;-84
2021/06/17 12:12:31;;;;;;;5.32;3.70;;;;;;;;;;10553312;28;20024;-84
2021/06/17 12:17:34;;;;;;;6.22;3.85;;;;;;;;;;10554972;28;20081;-84
2021/06/17 12:22:34;;;;;;;5.35;3.72;;;;;;;;;;10550581;28;20023;-85
2021/06/17 12:27:39;;;;;;;6.25;4.03;;;;;;;;;;10549336;28;20428;-85
2021/06/17 12:32:40;;;;;;;6.82;3.70;;;;;;;;;;10569323;28;20032;-85
2021/06/17 12:37:58;;;;;;;4.82;3.63;;;;;;;;;;10539247;28;20028;-84
2021/06/17 12:42:59;;;;;;;;;;;;;;;;;;10536428;28;20031;-83
2021/06/17 12:48:07;;;;;;;4.78;4.05;;;;;;;;;;10535731;28;20392;-84
2021/06/17 12:53:08;;;;;;;5.28;4.70;;;;;;;;;;10533232;28;20432;-83
2021/06/17 12:58:13;;;;;;;4.80;3.92;;;;;;;;;;10534622;28;20031;-83
2021/06/17 13:03:22;;;;;;;4.85;3.97;;;;;;;;;;10528865;28;20027;-86
2021/06/17 13:08:25;;;;;;;7.68;4.18;;;;;;;;;;10528205;28;20081;-86
2021/06/17 13:13:27;;;;;;;6.13;4.35;;;;;;;;;;10531617;28;20036;-86
2021/06/17 13:18:32;;;;;;;8.68;4.38;;;;;;;;;;10530160;28;20016;-87
2021/06/17 13:23:34;;;;;;;6.15;3.80;;;;;;;;;;10528525;28;20035;-86
2021/06/17 13:28:35;;;;;;;4.05;3.60;;;;;;;;;;10544881;28;20028;-85
2021/06/17 13:33:37;;;;;;;6.47;4.20;;;;;;;;;;10533210;28;20036;-84
2021/06/17 13:38:38;;;;;;;6.05;4.45;;;;;;;;;;10537417;28;20065;-84
2021/06/17 13:43:39;;;;;;;7.05;4.18;;;;;;;;;;10542352;28;20123;-85
2021/06/17 13:48:41;;;;;;;4.65;4.07;;;;;;;;;;10540421;28;20027;-85
2021/06/17 13:53:42;;;;;;;5.95;5.07;;;;;;;;;;10537938;28;20051;-85
2021/06/17 13:58:43;;;;;;;4.90;4.22;;;;;;;;;;10540796;28;20028;-85
2021/06/17 14:03:44;;;;;;;8.10;4.57;;;;;;;;;;10538521;28;20035;-85
2021/06/17 14:08:46;;;;;;;7.50;5.18;;;;;;;;;;10532394;28;20101;-87
2021/06/17 14:13:47;;;;;;;6.80;5.82;;;;;;;;;;10531600;28;20024;-86
2021/06/17 14:18:48;;;;;;;6.07;4.70;;;;;;;;;;10535931;28;20421;-87
2021/06/17 14:23:49;;;;;;;5.85;5.35;;;;;;;;;;10534389;28;20028;-86
2021/06/17 14:28:50;;;;;;;5.03;4.63;;;;;;;;;;10535013;28;20028;-87
2021/06/17 14:33:51;;;;;;;8.20;5.18;;;;;;;;;;10534392;28;20052;-87
2021/06/17 14:38:52;;;;;;;8.45;5.68;;;;;;;;;;10534360;28;20020;-87
2021/06/17 14:43:53;;;;;;;5.15;4.70;;;;;;;;;;10534102;28;20030;-87
2021/06/17 14:48:54;;;;;;;6.85;5.72;;;;;;;;;;10552143;28;20027;-87
2021/06/17 14:53:55;;;;;;;5.78;5.28;;;;;;;;;;10532415;28;20115;-86
2021/06/17 14:58:56;;;;;;;10.57;5.40;;;;;;;;;;10548699;28;20027;-85
2021/06/17 15:03:57;;;;;;;7.57;5.60;;;;;;;;;;10564428;28;20095;-85
2021/06/17 15:08:58;;;;;;;9.65;5.82;;;;;;;;;;10568224;28;20398;-84
2021/06/17 15:14:04;;;;;;;7.20;6.10;;;;;;;;;;10580859;28;20054;-84
2021/06/17 15:19:06;;;;;;;7.32;6.68;;;;;;;;;;10562830;28;20394;-86
2021/06/17 15:24:07;;;;;;;7.13;6.43;;;;;;;;;;10559535;28;20028;-86
2021/06/17 15:29:08;;;;;;;6.93;6.25;;;;;;;;;;10557805;28;20028;-86
2021/06/17 15:34:14;;;;;;;6.95;5.75;;;;;;;;;;10556786;28;20505;-85
2021/06/17 15:39:15;;;;;;;6.70;5.95;;;;;;;;;;10557373;28;20035;-85
2021/06/17 15:44:16;;;;;;;6.72;6.03;;;;;;;;;;10559422;28;20071;-85
2021/06/17 15:49:17;;;;;;;7.75;6.93;;;;;;;;;;10556012;28;20394;-86
2021/06/17 15:54:25;;;;;;;6.63;5.35;;;;;;;;;;10554357;28;20124;-85
2021/06/17 15:59:26;;;;;;;8.02;5.53;;;;;;;;;;10534549;28;20035;-86
2021/06/17 16:04:27;;;;;;;7.20;5.85;;;;;;;;;;10531442;28;20038;-86
2021/06/17 16:09:28;;;;;;;7.72;5.00;;;;;;;;;;10530692;28;20091;-86
2021/06/17 16:14:29;;;;;;;8.38;5.53;;;;;;;;;;10532708;28;20051;-84
2021/06/17 16:19:55;;;;;;;7.20;5.30;;;;;;;;;;10536066;28;20081;-88
2021/06/17 16:24:57;;;;;;;7.43;5.07;;;;;;;;;;10542690;28;20028;-87
2021/06/17 16:29:58;;;;;;;6.10;5.35;;;;;;;;;;10540520;28;20058;-86
2021/06/17 16:34:59;;;;;;;8.13;5.28;;;;;;;;;;10536430;28;20089;-87
2021/06/17 16:40:00;;;;;;;8.93;5.55;;;;;;;;;;10529378;28;20359;-87
2021/06/17 16:45:01;;;;;;;8.15;5.53;;;;;;;;;;10527323;28;20016;-87
2021/06/17 16:50:04;;;;;;;8.32;5.47;;;;;;;;;;10527791;28;20032;-87
2021/06/17 16:55:07;;;;;;;6.90;4.97;;;;;;;;;;10549781;28;20028;-86
2021/06/17 17:00:12;;;;;;;8.77;5.20;;;;;;;;;;10550459;28;20024;-87
2021/06/17 17:05:13;;;;;;;7.50;4.80;;;;;;;;;;10548408;28;20072;-86
2021/06/17 17:10:22;;;;;;;5.53;4.90;;;;;;;;;;10547983;28;20016;-86
2021/06/17 17:15:23;;;;;;;7.55;4.57;;;;;;;;;;10557314;28;20040;-86
2021/06/17 17:20:25;;;;;;;6.00;4.55;;;;;;;;;;10563356;28;20064;-86
2021/06/17 17:25:27;;;;;;;7.15;4.35;;;;;;;;;;10565347;28;20014;-86
2021/06/17 17:30:28;;;;;;;5.95;4.60;;;;;;;;;;10570806;28;20036;-86
2021/06/17 17:35:32;;;;;;;6.88;4.75;;;;;;;;;;10571626;28;20121;-87
2021/06/17 17:40:34;;;;;;;5.93;4.30;;;;;;;;;;10561029;28;20050;-87
2021/06/17 17:45:34;;;;;;;7.80;5.10;;;;;;;;;;10558341;28;20051;-87
2021/06/17 17:50:36;;;;;;;6.43;3.80;;;;;;;;;;10558407;28;20032;-86
2021/06/17 17:55:37;;;;;;;9.45;3.60;;;;;;;;;;10559893;28;20024;-86
2021/06/17 18:00:38;;;;;;;5.80;3.50;;;;;;;;;;10563577;28;20028;-87
2021/06/17 18:05:39;;;;;;;8.57;3.80;;;;;;;;;;10560480;28;20024;-86
2021/06/17 18:10:42;;;;;;;4.88;3.08;;;;;;;;;;10559274;28;20039;-86
2021/06/17 18:15:46;;;;;;;8.88;3.38;;;;;;;;;;10560094;28;20035;-86
2021/06/17 18:20:47;;;;;;;4.60;3.08;;;;;;;;;;10559746;28;20032;-86
2021/06/17 18:25:48;;;;;;;5.38;3.10;;;;;;;;;;10558790;28;20389;-86
2021/06/17 18:30:51;;;;;;;4.60;3.00;;;;;;;;;;10562623;28;20024;-88
2021/06/17 18:35:56;;;;;;;7.15;3.35;;;;;;;;;;10566999;28;20036;-87
2021/06/17 18:40:57;;;;;;;7.35;3.00;;;;;;;;;;10558248;28;20024;-86
2021/06/17 18:45:58;;;;;;;5.70;3.35;;;;;;;;;;10548448;28;20027;-87
2021/06/17 18:50:59;;;;;;;8.20;2.85;;;;;;;;;;10541860;28;20075;-86
2021/06/17 18:56:01;;;;;;;7.95;2.95;;;;;;;;;;10556889;28;20034;-86
2021/06/17 19:01:02;;;;;;;6.72;3.25;;;;;;;;;;10561496;28;20023;-86
2021/06/17 19:06:03;;;;;;;6.88;3.50;;;;;;;;;;10563797;28;20028;-86
2021/06/17 19:11:04;;;;;;;5.22;2.45;;;;;;;;;;10565323;28;20024;-86
2021/06/17 19:16:05;;;;;;;6.78;2.83;;;;;;;;;;10561515;28;20024;-86
2021/06/17 19:21:09;;;;;;;5.28;2.72;;;;;;;;;;10561741;28;20032;-86
2021/06/17 19:26:10;;;;;;;6.95;3.17;;;;;;;;;;10553350;28;20032;-87
